Spencer, Virginia
Current Conditions -  °F | °C
As of 12:35 AM on Thursday 23 Oct 2014 (Local Time) from KMTV Reporting Station
Clear Clear  
Wind Chill: 44°   Ceiling: Unl
Heat Index: 48°   Visibility: 10mi
Dew Point: 41°   Wind: 9mph
Humidity: 77%   Direction: 330°NNW
Pressure: 30.06"   Gusts: NA
Location:  36.62°N, 80.01°W
Report Text: KMTV 230435Z AUTO 33008KT 10SM CLR 09/05 A3006 RMK AO2 T00900051
Loading
Personal Weather Stations






























Interactive Weather Map
Tropical Storm Tracking
New forecast layout! Learn more

10-Day Weather Forecast

Advertisements
Track Severe Weather on mobile